Time;durP1;ratioP1;P1;durP2;ratioP2;P2;SDS_P1;SDS_P2;PMS_P1;PMS_P2;Temp;Humidity;BMP_temperature;BMP_pressure;BME280_temperature;BME280_humidity;BME280_pressure;Samples;Min_cycle;Max_cycle;Signal;HPM_P1;HPM_P2
2023/07/04 00:01:29;;;;;;;8.27;2.90;;;;;;;;;;4971597;28;20184;-68
2023/07/04 00:03:56;;;;;;;6.40;2.67;;;;;;;;;;4974603;28;20294;-69
2023/07/04 00:06:23;;;;;;;6.07;2.88;;;;;;;;;;4967684;28;20189;-69
2023/07/04 00:08:49;;;;;;;6.97;3.22;;;;;;;;;;4959894;28;20238;-69
2023/07/04 00:11:14;;;;;;;6.20;2.80;;;;;;;;;;4963819;28;20185;-69
2023/07/04 00:13:39;;;;;;;9.00;3.10;;;;;;;;;;4964611;28;20181;-69
2023/07/04 00:16:06;;;;;;;8.20;3.60;;;;;;;;;;4963902;28;20195;-69
2023/07/04 00:18:31;;;;;;;8.40;2.67;;;;;;;;;;4969234;28;20200;-69
2023/07/04 00:21:03;;;;;;;6.80;2.42;;;;;;;;;;4972373;28;20532;-69
2023/07/04 00:23:31;;;;;;;9.07;2.60;;;;;;;;;;4975158;28;20616;-69
2023/07/04 00:25:56;;;;;;;6.88;2.08;;;;;;;;;;4962290;28;20184;-69
2023/07/04 00:28:22;;;;;;;8.65;2.85;;;;;;;;;;4959623;28;20543;-69
2023/07/04 00:30:48;;;;;;;7.82;2.55;;;;;;;;;;4962321;28;20195;-69
2023/07/04 00:33:16;;;;;;;5.43;2.45;;;;;;;;;;4964055;28;20181;-69
2023/07/04 00:35:41;;;;;;;9.82;2.33;;;;;;;;;;4961182;28;20219;-68
2023/07/04 00:38:06;;;;;;;11.15;3.53;;;;;;;;;;4963853;28;20651;-69
2023/07/04 00:40:32;;;;;;;5.57;2.95;;;;;;;;;;4963003;28;20185;-69
2023/07/04 00:43:02;;;;;;;9.60;2.42;;;;;;;;;;4963978;28;20181;-68
2023/07/04 00:45:28;;;;;;;8.23;2.42;;;;;;;;;;4960077;28;20173;-69
2023/07/04 00:48:03;;;;;;;6.95;2.85;;;;;;;;;;4964776;28;20570;-68
2023/07/04 00:50:31;;;;;;;5.82;2.65;;;;;;;;;;4962633;28;20686;-69
2023/07/04 00:52:58;;;;;;;7.65;2.63;;;;;;;;;;4963645;28;20176;-69
2023/07/04 00:55:23;;;;;;;5.40;2.20;;;;;;;;;;4963547;28;20207;-69
2023/07/04 00:57:48;;;;;;;6.75;2.03;;;;;;;;;;4963182;28;20195;-69
2023/07/04 01:00:20;;;;;;;8.95;2.13;;;;;;;;;;4958596;28;20277;-69
2023/07/04 01:02:50;;;;;;;4.93;2.10;;;;;;;;;;4962601;28;20184;-69
2023/07/04 01:05:19;;;;;;;5.15;2.70;;;;;;;;;;4969679;28;20212;-69
2023/07/04 01:07:47;;;;;;;8.07;2.58;;;;;;;;;;4968000;28;20179;-68
2023/07/04 01:10:25;;;;;;;7.32;2.08;;;;;;;;;;4967572;28;20713;-69
2023/07/04 01:12:50;;;;;;;10.18;2.47;;;;;;;;;;4969702;28;20188;-69
2023/07/04 01:15:16;;;;;;;5.30;2.17;;;;;;;;;;4968813;28;20558;-69
2023/07/04 01:17:42;;;;;;;3.25;1.65;;;;;;;;;;4965937;28;20188;-69
2023/07/04 01:20:09;;;;;;;8.55;1.80;;;;;;;;;;4967780;28;20573;-69
2023/07/04 01:22:40;;;;;;;3.90;1.50;;;;;;;;;;4970900;28;20271;-69
2023/07/04 01:25:09;;;;;;;1.77;1.13;;;;;;;;;;4965491;28;20204;-68
2023/07/04 01:27:35;;;;;;;6.15;1.38;;;;;;;;;;4962990;28;20185;-68
2023/07/04 01:30:04;;;;;;;6.07;1.58;;;;;;;;;;4963313;28;20207;-68
2023/07/04 01:32:29;;;;;;;6.50;2.05;;;;;;;;;;4962627;28;20219;-68
2023/07/04 01:34:58;;;;;;;5.90;1.55;;;;;;;;;;4959619;28;20176;-69
2023/07/04 01:37:24;;;;;;;3.60;1.30;;;;;;;;;;4948533;28;20803;-68
2023/07/04 01:39:49;;;;;;;3.25;1.88;;;;;;;;;;4952433;28;20218;-68
2023/07/04 01:42:14;;;;;;;3.95;1.35;;;;;;;;;;4951663;28;20184;-68
2023/07/04 01:44:39;;;;;;;3.83;1.52;;;;;;;;;;4953116;28;20275;-68
2023/07/04 01:47:05;;;;;;;2.92;1.20;;;;;;;;;;4952301;28;22403;-68
2023/07/04 01:49:30;;;;;;;3.58;1.40;;;;;;;;;;4951775;28;20232;-68
2023/07/04 01:51:56;;;;;;;2.83;1.38;;;;;;;;;;4954742;28;20188;-68
2023/07/04 01:54:21;;;;;;;3.38;1.30;;;;;;;;;;4950951;28;20184;-68
2023/07/04 01:56:47;;;;;;;6.45;1.95;;;;;;;;;;4950839;28;20180;-68
2023/07/04 01:59:13;;;;;;;3.28;1.38;;;;;;;;;;4948681;28;20793;-68
2023/07/04 02:01:38;;;;;;;6.90;1.27;;;;;;;;;;4951140;28;20180;-71
2023/07/04 02:04:03;;;;;;;5.95;2.13;;;;;;;;;;4951444;28;20227;-68
2023/07/04 02:06:29;;;;;;;3.33;1.35;;;;;;;;;;4951217;28;20639;-69
2023/07/04 02:08:54;;;;;;;6.95;1.75;;;;;;;;;;4952099;28;20720;-68
2023/07/04 02:11:19;;;;;;;4.30;1.85;;;;;;;;;;4953067;28;20202;-68
2023/07/04 02:13:45;;;;;;;5.97;1.50;;;;;;;;;;4957296;28;20674;-68
2023/07/04 02:16:10;;;;;;;4.78;1.40;;;;;;;;;;4957643;28;20247;-68
2023/07/04 02:18:35;;;;;;;6.80;2.00;;;;;;;;;;4954558;28;20730;-68
2023/07/04 02:21:00;;;;;;;4.13;1.45;;;;;;;;;;4954378;28;20289;-68
2023/07/04 02:23:26;;;;;;;3.90;1.92;;;;;;;;;;4955220;28;20260;-68
2023/07/04 02:25:52;;;;;;;4.37;1.73;;;;;;;;;;4955261;28;20271;-68
2023/07/04 02:28:18;;;;;;;3.75;2.38;;;;;;;;;;4954243;28;20262;-68
2023/07/04 02:30:52;;;;;;;5.15;1.42;;;;;;;;;;4955329;28;20200;-68
2023/07/04 02:33:17;;;;;;;4.85;1.42;;;;;;;;;;4968342;28;21755;-68
2023/07/04 02:35:46;;;;;;;5.65;1.85;;;;;;;;;;4954337;28;20278;-68
2023/07/04 02:38:12;;;;;;;8.48;1.70;;;;;;;;;;4954973;28;20185;-68
2023/07/04 02:40:42;;;;;;;8.27;1.33;;;;;;;;;;4954556;28;20757;-68
2023/07/04 02:43:07;;;;;;;4.78;1.95;;;;;;;;;;4955808;28;20180;-68
2023/07/04 02:45:32;;;;;;;4.75;1.60;;;;;;;;;;4955108;28;20247;-68
2023/07/04 02:47:57;;;;;;;3.30;1.70;;;;;;;;;;4954906;28;20551;-68
2023/07/04 02:50:22;;;;;;;4.70;2.22;;;;;;;;;;4954681;28;20239;-68
2023/07/04 02:52:48;;;;;;;3.90;1.88;;;;;;;;;;4954928;28;20252;-68
2023/07/04 02:55:13;;;;;;;6.70;2.55;;;;;;;;;;4955053;28;20727;-68
2023/07/04 02:57:38;;;;;;;2.83;1.77;;;;;;;;;;4951159;28;20279;-68
2023/07/04 03:00:04;;;;;;;5.10;2.42;;;;;;;;;;4968943;28;20208;-68
2023/07/04 03:02:29;;;;;;;6.13;2.40;;;;;;;;;;4956721;28;20184;-68
2023/07/04 03:04:54;;;;;;;13.00;2.90;;;;;;;;;;4954844;28;20343;-68
2023/07/04 03:07:19;;;;;;;4.72;2.20;;;;;;;;;;4953434;28;20204;-68
2023/07/04 03:09:45;;;;;;;5.82;2.40;;;;;;;;;;4952993;28;20230;-68
2023/07/04 03:12:10;;;;;;;4.30;2.30;;;;;;;;;;4953948;28;20172;-68
2023/07/04 03:14:35;;;;;;;5.75;2.60;;;;;;;;;;4963199;28;20231;-68
2023/07/04 03:17:00;;;;;;;6.13;2.60;;;;;;;;;;4953997;28;20192;-68
2023/07/04 03:19:25;;;;;;;2.92;2.60;;;;;;;;;;4953413;28;20204;-68
2023/07/04 03:21:51;;;;;;;6.95;3.65;;;;;;;;;;4953110;28;20480;-68
2023/07/04 03:24:16;;;;;;;3.88;2.28;;;;;;;;;;4953039;28;20207;-68
2023/07/04 03:26:44;;;;;;;6.88;2.53;;;;;;;;;;4954223;28;20210;-68
2023/07/04 03:29:10;;;;;;;11.70;2.70;;;;;;;;;;4952667;28;20203;-69
2023/07/04 03:31:35;;;;;;;6.70;2.67;;;;;;;;;;4950611;28;20184;-68
2023/07/04 03:34:00;;;;;;;7.35;2.38;;;;;;;;;;4953809;28;20223;-69
2023/07/04 03:36:25;;;;;;;10.50;2.95;;;;;;;;;;4950930;28;20834;-68
2023/07/04 03:38:51;;;;;;;7.13;2.58;;;;;;;;;;4951915;28;20214;-68
2023/07/04 03:41:16;;;;;;;4.82;2.70;;;;;;;;;;4952839;28;20195;-68
2023/07/04 03:43:41;;;;;;;5.45;3.00;;;;;;;;;;4952825;28;20231;-68
2023/07/04 03:46:07;;;;;;;7.32;2.65;;;;;;;;;;4955495;28;20192;-68
2023/07/04 03:48:32;;;;;;;9.30;2.72;;;;;;;;;;4952345;28;20207;-68
2023/07/04 03:50:57;;;;;;;3.92;2.42;;;;;;;;;;4956016;28;20185;-68
2023/07/04 03:53:22;;;;;;;6.72;2.60;;;;;;;;;;4954010;28;20267;-68
2023/07/04 03:55:49;;;;;;;8.18;2.83;;;;;;;;;;4952874;28;20241;-68
2023/07/04 03:58:14;;;;;;;6.75;3.05;;;;;;;;;;4954734;28;20212;-68
2023/07/04 04:00:39;;;;;;;10.52;2.58;;;;;;;;;;4952767;28;20275;-68
2023/07/04 04:03:05;;;;;;;8.45;3.00;;;;;;;;;;4958877;28;20196;-68
2023/07/04 04:05:30;;;;;;;9.98;2.85;;;;;;;;;;4954135;28;20306;-68
2023/07/04 04:07:55;;;;;;;3.20;2.13;;;;;;;;;;4953317;28;20259;-68
2023/07/04 04:10:21;;;;;;;3.00;1.90;;;;;;;;;;4952703;28;20208;-68
2023/07/04 04:12:46;;;;;;;5.20;2.10;;;;;;;;;;4952744;28;20685;-68
2023/07/04 04:15:11;;;;;;;8.43;1.85;;;;;;;;;;4953533;28;20189;-68
2023/07/04 04:17:37;;;;;;;5.40;2.53;;;;;;;;;;4953605;28;20184;-68
2023/07/04 04:20:06;;;;;;;8.77;1.83;;;;;;;;;;4971285;28;20199;-68
2023/07/04 04:22:31;;;;;;;11.25;2.50;;;;;;;;;;4952943;28;20191;-68
2023/07/04 04:24:57;;;;;;;3.80;1.90;;;;;;;;;;4952070;28;20313;-69
2023/07/04 04:27:26;;;;;;;7.70;2.25;;;;;;;;;;4954762;28;20389;-68
2023/07/04 04:29:51;;;;;;;8.63;2.33;;;;;;;;;;4953356;28;20291;-68
2023/07/04 04:32:17;;;;;;;9.80;2.00;;;;;;;;;;4954429;28;20208;-68
2023/07/04 04:34:42;;;;;;;6.30;1.77;;;;;;;;;;4953861;28;20243;-68
2023/07/04 04:37:07;;;;;;;10.77;1.92;;;;;;;;;;4952745;28;20180;-68
2023/07/04 04:39:32;;;;;;;8.85;1.83;;;;;;;;;;4952896;28;20199;-68
2023/07/04 04:41:58;;;;;;;6.07;1.60;;;;;;;;;;4953204;28;20259;-68
2023/07/04 04:44:24;;;;;;;5.38;2.05;;;;;;;;;;4952641;28;20224;-68
2023/07/04 04:46:49;;;;;;;7.60;1.70;;;;;;;;;;4953608;28;20589;-68
2023/07/04 04:49:17;;;;;;;10.52;2.30;;;;;;;;;;4952757;28;20210;-68
2023/07/04 04:51:44;;;;;;;7.40;1.70;;;;;;;;;;4948514;28;20220;-68
2023/07/04 04:54:10;;;;;;;5.05;1.67;;;;;;;;;;4952632;28;20183;-68
2023/07/04 04:56:36;;;;;;;10.80;1.88;;;;;;;;;;4952282;28;20176;-68
2023/07/04 04:59:01;;;;;;;4.35;1.92;;;;;;;;;;4951179;28;20254;-68
2023/07/04 05:01:26;;;;;;;13.15;2.40;;;;;;;;;;4951972;28;21784;-68
2023/07/04 05:03:55;;;;;;;8.23;2.05;;;;;;;;;;4951739;28;20293;-68
2023/07/04 05:06:22;;;;;;;10.00;2.03;;;;;;;;;;4951814;28;20211;-67
2023/07/04 05:08:48;;;;;;;7.47;1.80;;;;;;;;;;4951520;28;20290;-67
2023/07/04 05:11:13;;;;;;;9.02;2.88;;;;;;;;;;4949369;28;20195;-68
2023/07/04 05:13:40;;;;;;;6.45;2.28;;;;;;;;;;4953568;28;20563;-67
2023/07/04 05:16:06;;;;;;;5.93;2.45;;;;;;;;;;4950305;28;20192;-68
2023/07/04 05:18:33;;;;;;;6.82;2.40;;;;;;;;;;4951396;28;20243;-68
2023/07/04 05:21:18;;;;;;;5.47;2.35;;;;;;;;;;4954628;28;20188;-68
2023/07/04 05:23:44;;;;;;;4.75;1.40;;;;;;;;;;4950840;28;20208;-68
2023/07/04 05:26:15;;;;;;;2.88;1.60;;;;;;;;;;4952973;28;20185;-68
2023/07/04 05:28:40;;;;;;;6.88;1.63;;;;;;;;;;4953050;28;20200;-68
2023/07/04 05:31:07;;;;;;;4.75;1.45;;;;;;;;;;4951681;28;20651;-68
2023/07/04 05:33:35;;;;;;;6.07;2.03;;;;;;;;;;4952310;28;20227;-68
2023/07/04 05:36:01;;;;;;;5.07;2.05;;;;;;;;;;4953708;28;20243;-68
2023/07/04 05:38:27;;;;;;;8.75;1.83;;;;;;;;;;4952489;28;20208;-68
2023/07/04 05:40:52;;;;;;;5.07;2.22;;;;;;;;;;4952182;28;20766;-68
2023/07/04 05:43:17;;;;;;;4.50;1.40;;;;;;;;;;4951333;28;20824;-68
2023/07/04 05:45:49;;;;;;;8.95;2.50;;;;;;;;;;4955482;28;20212;-68
2023/07/04 05:48:14;;;;;;;3.72;1.83;;;;;;;;;;4955252;28;20213;-68
2023/07/04 05:50:49;;;;;;;8.98;1.77;;;;;;;;;;4951209;28;20272;-68
2023/07/04 05:53:14;;;;;;;5.07;2.03;;;;;;;;;;4956441;28;20281;-68
2023/07/04 05:55:39;;;;;;;10.40;1.70;;;;;;;;;;4955990;28;20280;-68
2023/07/04 05:58:04;;;;;;;3.85;1.50;;;;;;;;;;4955730;28;20212;-67
2023/07/04 06:00:30;;;;;;;7.90;2.10;;;;;;;;;;4956708;28;20180;-67
2023/07/04 06:02:55;;;;;;;7.28;1.85;;;;;;;;;;4954815;28;20181;-67
2023/07/04 06:05:21;;;;;;;8.43;1.90;;;;;;;;;;4956363;28;20869;-66
2023/07/04 06:07:46;;;;;;;8.00;2.70;;;;;;;;;;4956221;28;20263;-67
2023/07/04 06:10:11;;;;;;;5.30;1.85;;;;;;;;;;4967280;23;20236;-70
2023/07/04 06:12:36;;;;;;;4.40;1.70;;;;;;;;;;4955556;28;20271;-71
2023/07/04 06:15:02;;;;;;;6.65;1.88;;;;;;;;;;4961261;28;20195;-72
2023/07/04 06:17:28;;;;;;;8.20;1.73;;;;;;;;;;4954245;28;20242;-71
2023/07/04 06:19:53;;;;;;;5.13;1.67;;;;;;;;;;4945905;28;20304;-70
2023/07/04 06:22:18;;;;;;;3.33;1.77;;;;;;;;;;4936332;28;20185;-72
2023/07/04 06:24:46;;;;;;;7.60;2.22;;;;;;;;;;4935636;28;20230;-71
2023/07/04 06:27:11;;;;;;;8.90;1.80;;;;;;;;;;4937776;28;20181;-71
2023/07/04 06:29:36;;;;;;;7.07;1.63;;;;;;;;;;4936798;28;20216;-72
2023/07/04 06:32:02;;;;;;;6.95;1.77;;;;;;;;;;4936935;28;20199;-72
2023/07/04 06:34:28;;;;;;;5.05;2.00;;;;;;;;;;4933287;28;20189;-72
2023/07/04 06:36:53;;;;;;;8.50;1.67;;;;;;;;;;4944467;28;20243;-72
2023/07/04 06:39:19;;;;;;;9.02;1.75;;;;;;;;;;4951739;28;20256;-72
2023/07/04 06:41:45;;;;;;;7.97;2.55;;;;;;;;;;4957956;28;20603;-72
2023/07/04 06:44:11;;;;;;;5.88;1.70;;;;;;;;;;4946565;28;20200;-71
2023/07/04 06:46:36;;;;;;;6.25;1.90;;;;;;;;;;4937041;28;20243;-71
2023/07/04 06:49:01;;;;;;;8.77;2.38;;;;;;;;;;4936526;28;20259;-74
2023/07/04 06:51:30;;;;;;;10.60;1.92;;;;;;;;;;4936134;28;20695;-73
2023/07/04 06:53:55;;;;;;;15.00;2.03;;;;;;;;;;4936341;28;20555;-72
2023/07/04 06:56:22;;;;;;;10.63;2.72;;;;;;;;;;4944179;28;20180;-74
2023/07/04 06:58:48;;;;;;;8.63;2.28;;;;;;;;;;4934520;28;20246;-76
2023/07/04 07:01:14;;;;;;;5.03;1.58;;;;;;;;;;4936498;28;20184;-74
2023/07/04 07:03:39;;;;;;;8.95;1.92;;;;;;;;;;4935795;28;20743;-73
2023/07/04 07:06:06;;;;;;;4.88;1.95;;;;;;;;;;4936820;28;20217;-73
2023/07/04 07:08:31;;;;;;;5.90;1.80;;;;;;;;;;4935689;28;20271;-73
2023/07/04 07:11:01;;;;;;;7.60;1.50;;;;;;;;;;4942035;28;20363;-72
2023/07/04 07:13:27;;;;;;;6.05;1.35;;;;;;;;;;4939623;28;20246;-73
2023/07/04 07:16:03;;;;;;;13.02;1.92;;;;;;;;;;4936988;28;20556;-74
2023/07/04 07:18:29;;;;;;;7.78;1.80;;;;;;;;;;4935527;28;20180;-73
2023/07/04 07:20:58;;;;;;;5.72;1.77;;;;;;;;;;4953245;28;20215;-73
2023/07/04 07:23:23;;;;;;;6.63;1.95;;;;;;;;;;4935868;28;20264;-73
2023/07/04 07:25:55;;;;;;;5.90;1.83;;;;;;;;;;4935944;28;20236;-74
2023/07/04 07:28:21;;;;;;;8.65;2.00;;;;;;;;;;4936501;28;20235;-74
2023/07/04 07:30:46;;;;;;;6.25;1.38;;;;;;;;;;4934832;28;20295;-72
2023/07/04 07:33:11;;;;;;;6.25;1.42;;;;;;;;;;4936020;28;20188;-72
2023/07/04 07:35:36;;;;;;;11.75;2.17;;;;;;;;;;4936609;28;20212;-73
2023/07/04 07:38:02;;;;;;;6.63;2.13;;;;;;;;;;4935984;28;20208;-73
2023/07/04 07:40:27;;;;;;;6.05;1.95;;;;;;;;;;4936696;28;20295;-73
2023/07/04 07:42:52;;;;;;;9.15;1.63;;;;;;;;;;4937111;28;20224;-73
2023/07/04 07:45:18;;;;;;;2.80;1.45;;;;;;;;;;4937941;28;20666;-72
2023/07/04 07:47:43;;;;;;;9.82;2.67;;;;;;;;;;4938263;28;20168;-73
2023/07/04 07:50:08;;;;;;;9.65;2.22;;;;;;;;;;4935463;28;20647;-72
2023/07/04 07:52:33;;;;;;;5.45;2.05;;;;;;;;;;4937480;28;20189;-72
2023/07/04 07:54:59;;;;;;;4.43;1.58;;;;;;;;;;4938309;28;20200;-74
2023/07/04 07:57:24;;;;;;;8.50;1.83;;;;;;;;;;4938870;28;20701;-73
2023/07/04 07:59:49;;;;;;;4.50;1.30;;;;;;;;;;4936684;28;20692;-73
2023/07/04 08:02:14;;;;;;;8.32;1.98;;;;;;;;;;4936354;28;20766;-73
2023/07/04 08:04:40;;;;;;;4.40;1.58;;;;;;;;;;4935040;28;20299;-74
2023/07/04 08:07:06;;;;;;;5.60;1.33;;;;;;;;;;4934507;28;20177;-73
2023/07/04 08:09:31;;;;;;;10.05;2.10;;;;;;;;;;4935114;28;20200;-72
2023/07/04 08:11:57;;;;;;;5.13;1.52;;;;;;;;;;4935719;28;20227;-73
2023/07/04 08:14:24;;;;;;;11.73;2.25;;;;;;;;;;4938981;28;20737;-72
2023/07/04 08:16:50;;;;;;;6.85;2.28;;;;;;;;;;4935199;28;20362;-73
2023/07/04 08:19:17;;;;;;;7.90;1.90;;;;;;;;;;4949835;28;20218;-73
2023/07/04 08:21:42;;;;;;;10.00;1.80;;;;;;;;;;4934671;28;20186;-75
2023/07/04 08:24:10;;;;;;;6.05;1.42;;;;;;;;;;4935843;28;20213;-73
2023/07/04 08:26:36;;;;;;;9.55;1.88;;;;;;;;;;4935122;28;20181;-75
2023/07/04 08:29:01;;;;;;;8.85;1.83;;;;;;;;;;4935550;28;20203;-73
2023/07/04 08:31:27;;;;;;;6.03;1.63;;;;;;;;;;4940484;28;20977;-74
2023/07/04 08:33:53;;;;;;;6.65;2.28;;;;;;;;;;4934774;28;20632;-72
2023/07/04 08:36:18;;;;;;;7.97;2.08;;;;;;;;;;4935891;28;20237;-73
2023/07/04 08:38:45;;;;;;;5.90;1.52;;;;;;;;;;4934976;28;20611;-71
2023/07/04 08:41:26;;;;;;;6.88;1.70;;;;;;;;;;4943792;28;20268;-74
2023/07/04 08:43:51;;;;;;;8.32;1.70;;;;;;;;;;4934749;28;20209;-73
2023/07/04 08:46:18;;;;;;;7.13;2.13;;;;;;;;;;4934038;28;20193;-73
2023/07/04 08:48:44;;;;;;;9.00;2.00;;;;;;;;;;4936055;28;20303;-74
2023/07/04 08:51:13;;;;;;;3.80;1.30;;;;;;;;;;4935959;28;20199;-74
2023/07/04 08:53:40;;;;;;;7.28;1.45;;;;;;;;;;4935329;28;20184;-73
2023/07/04 08:56:11;;;;;;;8.63;1.70;;;;;;;;;;4935205;28;20553;-74
2023/07/04 08:58:41;;;;;;;4.25;1.42;;;;;;;;;;4934963;28;20192;-74
2023/07/04 09:01:21;;;;;;;8.02;2.47;;;;;;;;;;4926816;28;20679;-73
2023/07/04 09:03:52;;;;;;;8.10;1.90;;;;;;;;;;4932002;28;20567;-73
2023/07/04 09:06:23;;;;;;;3.70;1.50;;;;;;;;;;4949641;28;20189;-73
2023/07/04 09:08:54;;;;;;;6.47;1.60;;;;;;;;;;4935559;28;20719;-73
2023/07/04 09:11:19;;;;;;;6.15;1.42;;;;;;;;;;4938914;28;20264;-74
2023/07/04 09:13:48;;;;;;;7.80;1.73;;;;;;;;;;4958457;28;20283;-73
2023/07/04 09:16:26;;;;;;;4.18;1.38;;;;;;;;;;4933969;28;20614;-73
2023/07/04 09:18:56;;;;;;;7.03;1.50;;;;;;;;;;4933172;28;20675;-74
2023/07/04 09:21:22;;;;;;;4.13;1.30;;;;;;;;;;4933683;28;20758;-72
2023/07/04 09:23:48;;;;;;;8.40;2.00;;;;;;;;;;4924499;28;20588;-74
2023/07/04 09:26:18;;;;;;;4.95;1.75;;;;;;;;;;4933842;28;20240;-73
2023/07/04 09:28:44;;;;;;;4.93;1.60;;;;;;;;;;4934119;28;20659;-73
2023/07/04 09:31:12;;;;;;;7.88;1.92;;;;;;;;;;4932888;28;20181;-72
2023/07/04 09:33:38;;;;;;;4.65;1.20;;;;;;;;;;4933327;28;20195;-72
2023/07/04 09:36:03;;;;;;;4.47;1.50;;;;;;;;;;4933403;28;20196;-73
2023/07/04 09:38:50;;;;;;;4.10;1.83;;;;;;;;;;4932814;28;20250;-74
2023/07/04 09:41:15;;;;;;;4.97;1.70;;;;;;;;;;4949985;28;20264;-72
2023/07/04 09:43:41;;;;;;;4.80;1.42;;;;;;;;;;4934017;28;20223;-74
2023/07/04 09:46:25;;;;;;;6.00;1.85;;;;;;;;;;4933415;28;20446;-74
2023/07/04 09:48:50;;;;;;;6.15;1.70;;;;;;;;;;4933993;28;20260;-74
2023/07/04 09:51:26;;;;;;;2.90;1.42;;;;;;;;;;4936785;28;20185;-73
2023/07/04 09:54:12;;;;;;;4.75;1.90;;;;;;;;;;4935009;28;20173;-73
2023/07/04 09:56:38;;;;;;;5.90;1.20;;;;;;;;;;4933824;28;20201;-74
2023/07/04 09:59:38;;;;;;;6.18;1.55;;;;;;;;;;4933929;28;20266;-74
2023/07/04 10:02:12;;;;;;;8.82;1.55;;;;;;;;;;4915724;29;20196;-73
2023/07/04 10:04:40;;;;;;;3.67;1.08;;;;;;;;;;4929971;28;20276;-73
2023/07/04 10:07:12;;;;;;;7.90;2.03;;;;;;;;;;4936840;28;20538;-74
2023/07/04 10:09:42;;;;;;;8.45;1.80;;;;;;;;;;4935144;28;20343;-74
2023/07/04 10:12:10;;;;;;;5.93;1.40;;;;;;;;;;4933280;28;20201;-74
2023/07/04 10:14:36;;;;;;;6.50;1.30;;;;;;;;;;4925537;28;20939;-74
2023/07/04 10:17:09;;;;;;;5.25;1.98;;;;;;;;;;4961031;28;20255;-73
2023/07/04 10:19:39;;;;;;;6.07;1.38;;;;;;;;;;4936912;28;20583;-74
2023/07/04 10:22:05;;;;;;;4.63;1.20;;;;;;;;;;4937244;28;20197;-74
2023/07/04 10:24:33;;;;;;;4.72;1.33;;;;;;;;;;4935058;28;20193;-74
2023/07/04 10:26:59;;;;;;;3.25;0.93;;;;;;;;;;4936672;28;20180;-75
2023/07/04 10:29:36;;;;;;;3.88;1.38;;;;;;;;;;4951134;28;20632;-74
2023/07/04 10:32:04;;;;;;;2.42;1.08;;;;;;;;;;4937420;28;20185;-74
2023/07/04 10:34:30;;;;;;;4.20;1.33;;;;;;;;;;4937628;28;20196;-73
2023/07/04 10:36:56;;;;;;;4.63;1.77;;;;;;;;;;4935601;28;20212;-73
2023/07/04 10:39:22;;;;;;;5.00;1.55;;;;;;;;;;4952700;28;20292;-73
2023/07/04 10:42:04;;;;;;;5.53;1.30;;;;;;;;;;4946408;28;20188;-74
2023/07/04 10:44:31;;;;;;;6.15;1.17;;;;;;;;;;4938996;28;20355;-73
2023/07/04 10:46:57;;;;;;;3.13;1.20;;;;;;;;;;4954145;28;20754;-74
2023/07/04 10:49:24;;;;;;;2.92;1.15;;;;;;;;;;4936556;28;20201;-73
2023/07/04 10:51:52;;;;;;;7.32;1.08;;;;;;;;;;4937920;28;20292;-73
2023/07/04 10:54:19;;;;;;;3.35;1.50;;;;;;;;;;4937407;28;20193;-74
2023/07/04 10:56:47;;;;;;;4.22;1.27;;;;;;;;;;4936912;28;20180;-74
2023/07/04 10:59:14;;;;;;;2.80;1.08;;;;;;;;;;4951520;28;20260;-74
2023/07/04 11:01:40;;;;;;;5.15;1.15;;;;;;;;;;4936115;28;20177;-74
2023/07/04 11:04:10;;;;;;;4.07;1.00;;;;;;;;;;4935498;28;21343;-73
2023/07/04 11:06:43;;;;;;;3.40;1.38;;;;;;;;;;4937875;28;20209;-74
2023/07/04 11:09:18;;;;;;;3.55;1.42;;;;;;;;;;4937416;28;20213;-72
2023/07/04 11:11:47;;;;;;;2.63;1.17;;;;;;;;;;4935720;28;20563;-73
2023/07/04 11:14:14;;;;;;;3.65;0.93;;;;;;;;;;4940406;28;20222;-73
2023/07/04 11:16:42;;;;;;;9.05;1.48;;;;;;;;;;4958832;28;20193;-73
2023/07/04 11:19:15;;;;;;;3.92;1.35;;;;;;;;;;4959002;28;20201;-74
2023/07/04 11:22:00;;;;;;;5.35;1.27;;;;;;;;;;4958412;28;20284;-74
2023/07/04 11:24:32;;;;;;;5.03;1.35;;;;;;;;;;4959187;28;20196;-75
2023/07/04 11:27:05;;;;;;;3.67;0.90;;;;;;;;;;4954621;28;20248;-74
2023/07/04 11:29:47;;;;;;;9.85;1.83;;;;;;;;;;4957905;28;20207;-74
2023/07/04 11:32:17;;;;;;;8.05;1.20;;;;;;;;;;4960785;28;20192;-74
2023/07/04 11:34:44;;;;;;;5.30;1.02;;;;;;;;;;4964077;28;20228;-74
2023/07/04 11:37:09;;;;;;;7.35;1.15;;;;;;;;;;4957079;28;20228;-74
2023/07/04 11:39:36;;;;;;;5.75;1.73;;;;;;;;;;4956400;28;20291;-74
2023/07/04 11:42:15;;;;;;;6.32;1.27;;;;;;;;;;4951698;28;20608;-73
2023/07/04 11:44:58;;;;;;;4.43;1.05;;;;;;;;;;4947563;28;20200;-73
2023/07/04 11:47:34;;;;;;;4.13;1.83;;;;;;;;;;4956612;28;20184;-73
2023/07/04 11:50:01;;;;;;;6.78;1.30;;;;;;;;;;4955892;28;20189;-73
2023/07/04 11:52:28;;;;;;;2.17;1.30;;;;;;;;;;4956175;28;20208;-73
2023/07/04 11:55:01;;;;;;;3.05;0.95;;;;;;;;;;4955183;28;20204;-74
2023/07/04 11:57:46;;;;;;;3.38;1.10;;;;;;;;;;4956107;29;20698;-73
2023/07/04 12:00:44;;;;;;;1.50;0.77;;;;;;;;;;4955562;28;20236;-74
2023/07/04 12:03:19;;;;;;;4.13;0.95;;;;;;;;;;4955369;28;20185;-73
2023/07/04 12:05:45;;;;;;;6.00;1.35;;;;;;;;;;4956138;28;20200;-74
2023/07/04 12:08:18;;;;;;;3.50;1.00;;;;;;;;;;4942398;29;20177;-74
2023/07/04 12:10:43;;;;;;;2.58;1.20;;;;;;;;;;4971468;23;20234;-68
2023/07/04 12:13:09;;;;;;;1.67;1.00;;;;;;;;;;4990956;28;20254;-68
2023/07/04 12:15:35;;;;;;;3.15;1.10;;;;;;;;;;4991912;28;20184;-68
2023/07/04 12:18:14;;;;;;;1.92;0.90;;;;;;;;;;4985005;28;20557;-68
2023/07/04 12:20:39;;;;;;;4.68;1.20;;;;;;;;;;4976536;28;20200;-68
2023/07/04 12:23:09;;;;;;;3.72;1.13;;;;;;;;;;4985246;28;20632;-68
2023/07/04 12:25:36;;;;;;;7.25;1.77;;;;;;;;;;4963404;28;20261;-68
2023/07/04 12:28:03;;;;;;;3.00;1.77;;;;;;;;;;4950699;28;20856;-67
2023/07/04 12:30:29;;;;;;;1.90;0.82;;;;;;;;;;4950521;28;20738;-67
2023/07/04 12:32:55;;;;;;;4.03;1.20;;;;;;;;;;4952532;28;20198;-68
2023/07/04 12:35:25;;;;;;;5.78;1.20;;;;;;;;;;4952636;28;20370;-67
2023/07/04 12:37:51;;;;;;;2.47;0.82;;;;;;;;;;4951592;28;20172;-67
2023/07/04 12:40:18;;;;;;;3.00;0.93;;;;;;;;;;4950919;28;20594;-67
2023/07/04 12:42:44;;;;;;;6.90;1.58;;;;;;;;;;4951704;28;20188;-68
2023/07/04 12:45:10;;;;;;;3.55;0.90;;;;;;;;;;4952817;28;20590;-67
2023/07/04 12:47:35;;;;;;;3.88;1.27;;;;;;;;;;4952215;28;20227;-67
2023/07/04 12:50:02;;;;;;;4.10;1.35;;;;;;;;;;4950404;28;20761;-66
2023/07/04 12:52:29;;;;;;;4.13;1.38;;;;;;;;;;4951683;28;20195;-66
2023/07/04 12:54:54;;;;;;;3.33;1.02;;;;;;;;;;4950980;28;20776;-68
2023/07/04 12:57:21;;;;;;;3.30;0.70;;;;;;;;;;4950875;28;20221;-67
2023/07/04 12:59:47;;;;;;;4.43;1.50;;;;;;;;;;4951503;28;20319;-67
2023/07/04 13:02:16;;;;;;;4.50;1.48;;;;;;;;;;4949233;28;20927;-66
2023/07/04 13:04:41;;;;;;;6.68;0.88;;;;;;;;;;4954245;28;20282;-67
2023/07/04 13:07:07;;;;;;;3.60;1.13;;;;;;;;;;4951394;28;20566;-66
2023/07/04 13:09:32;;;;;;;3.75;1.48;;;;;;;;;;4952923;28;20216;-67
2023/07/04 13:11:58;;;;;;;3.17;1.95;;;;;;;;;;4949043;28;20196;-68
2023/07/04 13:14:25;;;;;;;3.92;1.20;;;;;;;;;;4955858;28;20231;-68
2023/07/04 13:16:50;;;;;;;5.13;1.77;;;;;;;;;;4950750;28;20204;-67
2023/07/04 13:19:18;;;;;;;3.63;1.40;;;;;;;;;;4953004;28;20184;-66
2023/07/04 13:21:50;;;;;;;4.07;1.10;;;;;;;;;;4951329;28;20184;-67
2023/07/04 13:24:25;;;;;;;4.05;1.27;;;;;;;;;;4950812;28;20211;-67
2023/07/04 13:26:51;;;;;;;3.60;1.08;;;;;;;;;;4951837;28;20175;-67
2023/07/04 13:29:17;;;;;;;2.63;1.10;;;;;;;;;;4951842;28;20670;-67
2023/07/04 13:31:43;;;;;;;2.60;1.42;;;;;;;;;;4948992;28;20179;-67
2023/07/04 13:34:14;;;;;;;6.63;1.45;;;;;;;;;;4952249;28;20188;-67
2023/07/04 13:36:41;;;;;;;4.03;0.98;;;;;;;;;;4951024;28;20184;-68
2023/07/04 13:39:09;;;;;;;3.05;1.20;;;;;;;;;;4950714;28;20188;-68
2023/07/04 13:41:35;;;;;;;2.47;1.30;;;;;;;;;;4949968;28;20203;-67
2023/07/04 13:44:00;;;;;;;1.70;0.90;;;;;;;;;;4965382;28;20208;-68
2023/07/04 13:46:25;;;;;;;4.20;1.43;;;;;;;;;;4950141;28;20913;-67
2023/07/04 13:48:51;;;;;;;2.45;1.38;;;;;;;;;;4950507;28;20755;-67
2023/07/04 13:51:21;;;;;;;2.15;1.17;;;;;;;;;;4954753;28;20204;-68
2023/07/04 13:53:46;;;;;;;3.55;1.08;;;;;;;;;;4950170;28;20188;-67
2023/07/04 13:56:12;;;;;;;2.08;1.10;;;;;;;;;;4945752;28;20271;-68
2023/07/04 13:58:38;;;;;;;3.70;1.50;;;;;;;;;;4951020;28;20184;-67
2023/07/04 14:01:03;;;;;;;1.75;0.98;;;;;;;;;;4950061;28;20200;-67
2023/07/04 14:03:30;;;;;;;2.65;1.33;;;;;;;;;;4950439;28;20278;-68
2023/07/04 14:05:56;;;;;;;3.53;1.30;;;;;;;;;;4951918;28;20223;-67
2023/07/04 14:08:21;;;;;;;4.13;1.42;;;;;;;;;;4954103;28;20181;-66
2023/07/04 14:10:46;;;;;;;2.97;0.90;;;;;;;;;;4954017;28;20228;-67
2023/07/04 14:13:11;;;;;;;5.18;1.10;;;;;;;;;;4953788;28;20433;-67
2023/07/04 14:15:36;;;;;;;6.57;1.13;;;;;;;;;;4956846;28;20536;-66
2023/07/04 14:18:02;;;;;;;2.25;1.10;;;;;;;;;;4953685;28;21702;-66
2023/07/04 14:20:28;;;;;;;2.85;1.10;;;;;;;;;;4961568;28;20201;-67
2023/07/04 14:22:54;;;;;;;3.13;1.48;;;;;;;;;;4947403;28;20181;-67
2023/07/04 14:25:19;;;;;;;2.95;1.58;;;;;;;;;;4954342;28;20662;-67
2023/07/04 14:27:44;;;;;;;5.43;1.70;;;;;;;;;;4969860;28;20656;-68
2023/07/04 14:30:10;;;;;;;2.03;1.10;;;;;;;;;;4956414;28;20639;-66
2023/07/04 14:32:35;;;;;;;2.95;1.30;;;;;;;;;;4956091;28;20199;-68
2023/07/04 14:35:01;;;;;;;2.45;1.25;;;;;;;;;;4954815;28;20271;-68
2023/07/04 14:37:26;;;;;;;1.63;1.10;;;;;;;;;;4953498;28;20250;-67
2023/07/04 14:39:54;;;;;;;2.97;1.27;;;;;;;;;;4952884;28;20216;-68
2023/07/04 14:42:20;;;;;;;2.33;1.20;;;;;;;;;;4954641;28;20807;-68
2023/07/04 14:44:47;;;;;;;2.13;1.10;;;;;;;;;;4953551;28;20213;-67